createdAt,value
2022-10-11T00:03:21.750Z,92.24
2022-10-11T00:08:24.384Z,92.19
2022-10-11T00:13:28.051Z,92.46
2022-10-11T00:18:30.989Z,92.80
2022-10-11T00:23:34.261Z,93.42
2022-10-11T00:28:37.978Z,93.75
2022-10-11T00:33:40.828Z,93.77
2022-10-11T00:38:45.008Z,94.04
2022-10-11T00:43:47.916Z,94.13
2022-10-11T00:49:12.511Z,94.42
2022-10-11T00:54:19.006Z,94.52
2022-10-11T00:59:26.468Z,94.60
2022-10-11T01:04:29.144Z,94.69
2022-10-11T01:09:32.175Z,94.83
2022-10-11T01:14:37.821Z,95.33
2022-10-11T01:19:58.461Z,95.90
2022-10-11T01:25:27.826Z,96.10
2022-10-11T01:30:33.291Z,96.34
2022-10-11T01:35:47.101Z,96.33
2022-10-11T01:41:06.957Z,96.52
2022-10-11T01:46:11.078Z,96.72
2022-10-11T01:51:14.161Z,97.21
2022-10-11T01:56:49.328Z,97.41
2022-10-11T02:02:10.827Z,97.60
2022-10-11T02:07:39.790Z,98.19
2022-10-11T02:12:47.959Z,98.59
2022-10-11T02:17:56.375Z,99.09
2022-10-11T02:23:08.920Z,99.79
2022-10-11T02:28:16.669Z,99.96
2022-10-11T02:33:25.318Z,100.00
2022-10-11T02:38:34.545Z,100.00
2022-10-11T02:43:41.631Z,100.00
2022-10-11T02:48:44.238Z,100.00
2022-10-11T02:53:46.919Z,100.00
2022-10-11T02:58:49.712Z,100.00
2022-10-11T03:03:52.424Z,100.00
2022-10-11T03:08:55.075Z,100.00
2022-10-11T03:13:57.819Z,100.00
2022-10-11T03:19:00.448Z,100.00
2022-10-11T03:24:03.518Z,100.00
2022-10-11T03:29:06.196Z,100.00
2022-10-11T03:34:09.406Z,100.00
2022-10-11T03:39:12.094Z,100.00
2022-10-11T03:44:14.776Z,100.00
2022-10-11T03:49:17.432Z,100.00
2022-10-11T03:54:20.113Z,100.00
2022-10-11T03:59:22.743Z,100.00
2022-10-11T04:04:25.533Z,100.00
2022-10-11T04:09:28.602Z,100.00
2022-10-11T04:14:31.412Z,100.00
2022-10-11T04:19:34.126Z,100.00
2022-10-11T04:24:36.828Z,100.00
2022-10-11T04:29:39.464Z,100.00
2022-10-11T04:34:42.198Z,100.00
2022-10-11T04:39:45.351Z,100.00
2022-10-11T04:44:48.604Z,100.00
2022-10-11T04:49:51.275Z,100.00
2022-10-11T04:54:53.920Z,100.00
2022-10-11T04:59:56.619Z,100.00
2022-10-11T05:04:59.575Z,100.00
2022-10-11T05:10:02.606Z,100.00
2022-10-11T05:15:06.429Z,100.00
2022-10-11T05:20:10.087Z,100.00
2022-10-11T05:25:12.803Z,100.00
2022-10-11T05:30:15.566Z,100.00
2022-10-11T05:35:18.266Z,100.00
2022-10-11T05:40:20.931Z,100.00
2022-10-11T05:45:23.664Z,100.00
2022-10-11T05:50:26.481Z,100.00
2022-10-11T05:55:29.691Z,100.00
2022-10-11T06:00:32.327Z,100.00
2022-10-11T06:05:36.394Z,100.00
2022-10-11T06:10:39.047Z,100.00
2022-10-11T06:15:41.862Z,100.00
2022-10-11T06:20:44.532Z,100.00
2022-10-11T06:25:59.652Z,100.00
2022-10-11T06:31:04.648Z,100.00
2022-10-11T06:36:11.914Z,100.00
2022-10-11T06:41:20.902Z,100.00
2022-10-11T06:46:25.851Z,100.00
2022-10-11T06:51:30.226Z,100.00
2022-10-11T06:56:33.199Z,100.00
2022-10-11T07:01:37.643Z,100.00
2022-10-11T07:17:35.977Z,100.00
2022-10-11T07:22:45.886Z,100.00
2022-10-11T07:28:02.020Z,100.00
2022-10-11T07:38:35.236Z,100.00
2022-10-11T07:43:38.786Z,100.00
2022-10-11T07:48:41.859Z,100.00
2022-10-11T07:53:53.204Z,100.00
2022-10-11T07:58:59.857Z,100.00
2022-10-11T08:04:05.401Z,100.00
2022-10-11T08:09:19.969Z,100.00
2022-10-11T08:14:42.635Z,99.31
2022-10-11T08:19:45.480Z,95.56
2022-10-11T08:24:53.685Z,93.58
2022-10-11T08:30:02.996Z,91.89
2022-10-11T08:35:07.715Z,91.41
2022-10-11T08:40:16.096Z,90.68
2022-10-11T08:45:30.232Z,89.96
2022-10-11T08:50:33.766Z,89.02
2022-10-11T08:55:45.257Z,88.53
2022-10-11T09:00:53.171Z,85.61
2022-10-11T09:06:08.284Z,83.80
2022-10-11T09:11:23.971Z,84.16
2022-10-11T09:16:47.756Z,83.21
2022-10-11T09:22:30.211Z,80.28
2022-10-11T09:28:01.304Z,80.40
2022-10-11T09:33:15.325Z,77.16
2022-10-11T09:38:24.677Z,74.86
2022-10-11T09:43:27.654Z,75.37
2022-10-11T09:48:39.671Z,74.79
2022-10-11T09:53:56.894Z,72.62
2022-10-11T09:59:10.619Z,71.39
2022-10-11T10:04:17.183Z,71.85
2022-10-11T10:09:24.990Z,70.05
2022-10-11T10:14:30.187Z,70.14
2022-10-11T10:19:44.772Z,70.11
2022-10-11T10:24:50.688Z,70.91
2022-10-11T10:30:08.739Z,68.33
2022-10-11T10:35:34.547Z,68.57
2022-10-11T10:40:57.666Z,69.06
2022-10-11T10:46:16.421Z,67.71
2022-10-11T10:51:38.717Z,67.55
2022-10-11T10:57:04.022Z,66.95
2022-10-11T11:02:40.261Z,66.04
2022-10-11T11:07:52.645Z,67.82
2022-10-11T11:13:38.515Z,67.66
2022-10-11T11:19:54.488Z,65.66
2022-10-11T11:25:22.601Z,65.02
2022-10-11T11:30:41.720Z,64.63
2022-10-11T11:35:53.447Z,64.01
2022-10-11T11:41:02.295Z,65.88
2022-10-11T11:46:13.479Z,67.92
2022-10-11T11:51:31.774Z,67.90
2022-10-11T11:57:03.522Z,67.47
2022-10-11T12:02:45.728Z,65.69
2022-10-11T12:07:51.768Z,64.87
2022-10-11T12:13:38.275Z,64.23
2022-10-11T12:18:49.014Z,65.33
2022-10-11T12:23:56.219Z,65.63
2022-10-11T12:29:25.876Z,64.91
2022-10-11T12:35:18.896Z,64.69
2022-10-11T12:40:41.839Z,63.68
2022-10-11T12:45:51.194Z,63.43
2022-10-11T12:51:38.642Z,63.13
2022-10-11T12:57:40.491Z,63.72
2022-10-11T13:02:52.962Z,64.13
2022-10-11T13:08:05.488Z,65.03
2022-10-11T13:13:21.702Z,64.96
2022-10-11T13:18:27.488Z,65.46
2022-10-11T13:23:39.784Z,67.19
2022-10-11T13:28:44.618Z,68.92
2022-10-11T13:33:48.293Z,70.14
2022-10-11T13:39:01.871Z,71.78
2022-10-11T13:44:04.880Z,72.28
2022-10-11T13:49:48.479Z,72.64
2022-10-11T13:55:03.881Z,71.63
2022-10-11T14:00:43.397Z,70.43
2022-10-11T14:11:42.041Z,70.04
2022-10-11T14:17:11.931Z,69.97
2022-10-11T14:22:37.734Z,69.91
2022-10-11T14:27:49.106Z,69.24
2022-10-11T14:32:54.956Z,68.29
2022-10-11T14:37:57.918Z,68.50
2022-10-11T14:43:00.695Z,69.02
2022-10-11T14:48:04.335Z,67.26
2022-10-11T14:53:07.699Z,67.76
2022-10-11T14:58:11.849Z,68.69
2022-10-11T15:03:14.541Z,69.27
2022-10-11T15:08:17.667Z,69.99
2022-10-11T15:13:20.329Z,69.94
2022-10-11T15:18:23.050Z,70.60
2022-10-11T15:23:25.755Z,71.19
2022-10-11T15:28:32.573Z,72.00
2022-10-11T15:33:35.645Z,72.71
2022-10-11T15:38:38.332Z,73.73
2022-10-11T15:43:42.607Z,74.07
2022-10-11T15:48:46.703Z,74.98
2022-10-11T15:53:49.403Z,75.66
2022-10-11T15:58:52.056Z,76.45
2022-10-11T16:03:54.832Z,77.03
2022-10-11T16:08:57.532Z,77.36
2022-10-11T16:14:00.154Z,77.80
2022-10-11T16:19:02.907Z,78.21
2022-10-11T16:24:05.691Z,78.57
2022-10-11T16:29:08.381Z,79.10
2022-10-11T16:34:11.053Z,79.57
2022-10-11T16:39:16.937Z,80.12
2022-10-11T16:44:21.433Z,81.09
2022-10-11T16:49:27.346Z,82.00
2022-10-11T16:54:31.795Z,82.64
2022-10-11T16:59:35.073Z,83.17
2022-10-11T17:04:37.756Z,83.50
2022-10-11T17:09:44.107Z,83.91
2022-10-11T17:14:48.021Z,84.63
2022-10-11T17:19:50.833Z,85.99
2022-10-11T17:24:53.543Z,87.28
2022-10-11T17:29:56.259Z,88.09
2022-10-11T17:35:02.023Z,88.66
2022-10-11T17:40:06.356Z,89.08
2022-10-11T17:45:09.504Z,90.01
2022-10-11T17:50:12.184Z,91.22
2022-10-11T17:55:15.132Z,91.98
2022-10-11T18:00:17.885Z,92.74
2022-10-11T18:05:20.543Z,93.37
2022-10-11T18:10:23.867Z,94.27
2022-10-11T18:15:30.773Z,94.96
2022-10-11T18:20:33.773Z,95.80
2022-10-11T18:25:36.777Z,96.89
2022-10-11T18:30:47.362Z,98.04
2022-10-11T18:35:50.116Z,98.13
2022-10-11T18:40:52.750Z,98.60
2022-10-11T18:46:06.369Z,99.33
2022-10-11T18:51:16.236Z,100.00
2022-10-11T18:56:26.776Z,100.00
2022-10-11T19:01:38.610Z,99.93
2022-10-11T19:06:43.834Z,100.00
2022-10-11T19:11:46.653Z,100.00
2022-10-11T19:16:51.626Z,100.00
2022-10-11T19:21:54.471Z,100.00
2022-10-11T19:27:02.223Z,100.00
2022-10-11T19:32:05.748Z,100.00
2022-10-11T19:37:13.225Z,100.00
2022-10-11T19:42:15.976Z,100.00
2022-10-11T19:47:18.736Z,100.00
2022-10-11T19:52:21.525Z,100.00
2022-10-11T19:57:24.211Z,100.00
2022-10-11T20:02:26.983Z,100.00
2022-10-11T20:07:29.883Z,100.00
2022-10-11T20:12:34.024Z,100.00
2022-10-11T20:17:49.304Z,100.00
2022-10-11T20:22:53.604Z,100.00
2022-10-11T20:27:56.608Z,100.00
2022-10-11T20:32:59.243Z,100.00
2022-10-11T20:38:02.117Z,100.00
2022-10-11T20:43:04.836Z,100.00
2022-10-11T20:48:07.496Z,100.00
2022-10-11T20:53:15.545Z,100.00
2022-10-11T20:58:19.771Z,100.00
2022-10-11T21:03:22.336Z,100.00
2022-10-11T21:08:25.082Z,100.00
2022-10-11T21:13:27.892Z,100.00
2022-10-11T21:18:30.790Z,100.00
2022-10-11T21:23:34.526Z,100.00
2022-10-11T21:28:38.574Z,100.00
2022-10-11T21:33:43.620Z,100.00
2022-10-11T21:38:46.595Z,100.00
2022-10-11T21:43:49.565Z,100.00
2022-10-11T21:48:52.365Z,100.00
2022-10-11T21:53:57.570Z,100.00
2022-10-11T21:59:00.319Z,100.00
2022-10-11T22:04:05.071Z,100.00
2022-10-11T22:09:08.669Z,100.00
2022-10-11T22:14:12.096Z,100.00
2022-10-11T22:19:15.627Z,100.00
2022-10-11T22:24:18.308Z,100.00
2022-10-11T22:29:20.949Z,100.00
2022-10-11T22:34:23.571Z,100.00
2022-10-11T22:39:26.236Z,100.00
2022-10-11T22:44:28.875Z,100.00
2022-10-11T22:49:31.575Z,100.00
2022-10-11T22:54:34.275Z,100.00
2022-10-11T22:59:36.915Z,100.00
2022-10-11T23:04:39.589Z,100.00
2022-10-11T23:09:42.216Z,100.00
2022-10-11T23:14:44.869Z,100.00
2022-10-11T23:19:47.552Z,100.00
2022-10-11T23:24:50.246Z,100.00
2022-10-11T23:29:52.904Z,100.00
2022-10-11T23:34:55.722Z,100.00
2022-10-11T23:39:58.422Z,100.00
2022-10-11T23:45:01.045Z,100.00
2022-10-11T23:50:04.046Z,100.00
2022-10-11T23:55:06.950Z,100.00
